Time;durP1;ratioP1;P1;durP2;ratioP2;P2;SDS_P1;SDS_P2;PMS_P1;PMS_P2;Temp;Humidity;BMP_temperature;BMP_pressure;BME280_temperature;BME280_humidity;BME280_pressure;Samples;Min_cycle;Max_cycle;Signal;HPM_P1;HPM_P2
2020/12/07 00:00:15;;;;;;;1999.90;999.90;;;5.00;99.90;;;;;;4970573;28;20199;-83
2020/12/07 00:02:41;;;;;;;1999.90;999.90;;;5.00;99.90;;;;;;4988053;28;20179;-83
2020/12/07 00:05:07;;;;;;;1999.90;999.90;;;5.00;99.90;;;;;;4970544;28;20171;-83
2020/12/07 00:07:33;;;;;;;1999.90;999.90;;;5.10;99.90;;;;;;4970152;28;20175;-82
2020/12/07 00:10:02;;;;;;;1999.90;999.90;;;5.20;99.90;;;;;;4986528;28;20403;-82
2020/12/07 00:12:29;;;;;;;1999.90;999.90;;;5.20;99.90;;;;;;4986761;28;20673;-82
2020/12/07 00:14:55;;;;;;;1999.90;999.90;;;5.20;99.90;;;;;;4969170;28;20566;-82
2020/12/07 00:17:22;;;;;;;1999.90;999.90;;;5.20;99.90;;;;;;4968226;28;20202;-82
2020/12/07 00:19:48;;;;;;;1999.90;999.90;;;5.10;99.90;;;;;;4987214;28;20418;-82
2020/12/07 00:22:34;;;;;;;1999.90;999.90;;;5.20;99.90;;;;;;4969774;28;20164;-81
2020/12/07 00:25:01;;;;;;;1999.90;999.90;;;5.20;99.90;;;;;;4985179;28;20190;-81
2020/12/07 00:27:28;;;;;;;1999.90;999.90;;;5.20;99.90;;;;;;4984723;28;20168;-82
2020/12/07 00:29:55;;;;;;;1999.90;999.90;;;5.20;99.90;;;;;;4984050;28;20167;-81
2020/12/07 00:32:22;;;;;;;1999.90;999.90;;;5.20;99.90;;;;;;4967275;28;20218;-81
2020/12/07 00:34:49;;;;;;;1999.90;999.90;;;5.20;99.90;;;;;;4983366;28;20219;-81
2020/12/07 00:37:15;;;;;;;1999.90;999.90;;;5.20;99.90;;;;;;4983262;28;20163;-81
2020/12/07 00:39:41;;;;;;;1999.90;999.90;;;5.20;99.90;;;;;;4966169;28;20197;-81
2020/12/07 00:42:10;;;;;;;1999.90;999.90;;;5.10;99.90;;;;;;4966456;28;20175;-81
2020/12/07 00:44:40;;;;;;;1999.90;999.90;;;5.10;99.90;;;;;;4965824;28;20178;-81
2020/12/07 00:47:09;;;;;;;1999.90;999.90;;;5.10;99.90;;;;;;4981993;28;20254;-81
2020/12/07 00:49:36;;;;;;;1999.90;999.90;;;5.10;99.90;;;;;;4981840;28;20159;-81
2020/12/07 00:52:02;;;;;;;1999.90;999.90;;;5.10;99.90;;;;;;4982763;28;20174;-81
2020/12/07 00:54:28;;;;;;;1999.90;999.90;;;5.20;99.90;;;;;;4981442;28;20199;-81
2020/12/07 00:56:54;;;;;;;1999.90;999.90;;;5.10;99.90;;;;;;4983016;28;20417;-81
2020/12/07 00:59:20;;;;;;;1999.90;999.90;;;5.10;99.90;;;;;;4981846;28;20220;-81
2020/12/07 01:01:47;;;;;;;1999.90;999.90;;;5.20;99.90;;;;;;4980896;28;20163;-81
2020/12/07 01:04:13;;;;;;;1999.90;999.90;;;5.10;99.90;;;;;;4964638;28;20202;-81
2020/12/07 01:06:39;;;;;;;1999.90;999.90;;;5.10;99.90;;;;;;4981429;28;20175;-81
2020/12/07 01:09:04;;;;;;;1999.90;999.90;;;5.10;99.90;;;;;;4980959;28;20403;-81
2020/12/07 01:11:30;;;;;;;1999.90;999.90;;;5.10;99.90;;;;;;4980168;28;20430;-81
2020/12/07 01:13:56;;;;;;;1999.90;999.90;;;5.10;99.90;;;;;;4980378;28;20219;-80
2020/12/07 01:16:23;;;;;;;1999.90;999.90;;;5.10;99.90;;;;;;4979944;28;20168;-80
2020/12/07 01:18:49;;;;;;;1999.90;999.90;;;5.10;99.90;;;;;;4978889;28;20270;-81
2020/12/07 01:21:16;;;;;;;1999.90;999.90;;;5.10;99.90;;;;;;4962656;28;20698;-80
2020/12/07 01:23:44;;;;;;;1999.90;999.90;;;5.10;99.90;;;;;;4979457;28;20182;-81
2020/12/07 01:26:14;;;;;;;1999.90;999.90;;;5.10;99.90;;;;;;4978818;28;20170;-81
2020/12/07 01:28:42;;;;;;;1999.90;999.90;;;5.00;99.90;;;;;;4978839;28;20167;-81
2020/12/07 01:31:11;;;;;;;1999.90;999.90;;;5.00;99.90;;;;;;4979282;28;20171;-81
2020/12/07 01:33:36;;;;;;;1999.90;999.90;;;5.10;99.90;;;;;;4979663;28;20174;-80
2020/12/07 01:36:02;;;;;;;1999.90;999.90;;;5.10;99.90;;;;;;4979340;28;20167;-80
2020/12/07 01:38:28;;;;;;;1999.90;999.90;;;5.00;99.90;;;;;;4979454;28;20563;-80
2020/12/07 01:40:59;;;;;;;1999.90;999.90;;;5.00;99.90;;;;;;4979770;28;20213;-81
2020/12/07 01:43:25;;;;;;;1999.90;999.90;;;5.00;99.90;;;;;;4962197;28;20651;-80
2020/12/07 01:45:54;;;;;;;1999.90;999.90;;;5.00;99.90;;;;;;4979014;28;20219;-80
2020/12/07 01:48:19;;;;;;;1999.90;999.90;;;5.00;99.90;;;;;;4978801;28;20254;-81
2020/12/07 01:50:45;;;;;;;1999.90;999.90;;;5.10;99.90;;;;;;4962104;28;20198;-81
2020/12/07 01:53:11;;;;;;;1999.90;999.90;;;5.00;99.90;;;;;;4979096;28;20167;-81
2020/12/07 01:55:41;;;;;;;1999.90;999.90;;;5.00;99.90;;;;;;4978476;28;20199;-81
2020/12/07 01:58:07;;;;;;;1999.90;999.90;;;5.00;99.90;;;;;;4961707;28;20195;-81
2020/12/07 02:00:32;;;;;;;1999.90;999.90;;;5.00;99.90;;;;;;4978792;28;20171;-81
2020/12/07 02:02:58;;;;;;;1999.90;999.90;;;5.00;99.90;;;;;;4979022;28;20414;-81
2020/12/07 02:05:26;;;;;;;1999.90;999.90;;;5.00;99.90;;;;;;4979342;28;20623;-81
2020/12/07 02:08:13;;;;;;;1999.90;999.90;;;5.00;99.90;;;;;;4979469;28;20171;-81
2020/12/07 02:10:39;;;;;;;1999.90;999.90;;;5.00;99.90;;;;;;4968337;28;20183;-81
2020/12/07 02:13:05;;;;;;;1999.90;999.90;;;5.00;99.90;;;;;;4979636;28;20163;-81
2020/12/07 02:15:31;;;;;;;1999.90;999.90;;;5.00;99.90;;;;;;4978437;28;20338;-81
2020/12/07 02:17:57;;;;;;;1999.90;999.90;;;5.00;99.90;;;;;;5044098;23;20230;-78
2020/12/07 02:20:22;;;;;;;1999.90;999.90;;;5.00;99.90;;;;;;4974607;28;20221;-78
2020/12/07 02:22:48;;;;;;;1999.90;999.90;;;5.00;99.90;;;;;;4975141;28;20824;-78
2020/12/07 02:25:14;;;;;;;1999.90;999.90;;;5.00;99.90;;;;;;4974508;28;20167;-78
2020/12/07 02:27:39;;;;;;;1999.90;999.90;;;5.00;99.90;;;;;;4974520;28;20171;-78
2020/12/07 02:30:05;;;;;;;1999.90;999.90;;;5.00;99.90;;;;;;4974712;28;20318;-78
2020/12/07 02:32:31;;;;;;;1999.90;999.90;;;4.90;99.90;;;;;;4974732;28;20277;-78
2020/12/07 02:34:56;;;;;;;1999.90;999.90;;;5.00;99.90;;;;;;4975117;28;20503;-78
2020/12/07 02:37:23;;;;;;;1999.90;999.90;;;5.00;99.90;;;;;;4976669;28;20199;-78
2020/12/07 02:39:48;;;;;;;1999.90;999.90;;;4.90;99.90;;;;;;4962077;28;20223;-78
2020/12/07 02:42:14;;;;;;;1999.90;999.90;;;4.90;99.90;;;;;;4978945;28;20570;-78
2020/12/07 02:44:40;;;;;;;1999.90;999.90;;;5.00;99.90;;;;;;4962226;28;20178;-78
2020/12/07 02:47:06;;;;;;;1999.90;999.90;;;4.90;99.90;;;;;;4963322;28;20612;-78
2020/12/07 02:49:31;;;;;;;1999.90;999.90;;;4.90;99.90;;;;;;4980549;28;20168;-78
2020/12/07 02:51:57;;;;;;;1999.90;999.90;;;4.80;99.90;;;;;;4980951;28;20167;-78
2020/12/07 02:54:23;;;;;;;1999.90;999.90;;;4.80;99.90;;;;;;4980677;28;20218;-78
2020/12/07 02:56:48;;;;;;;1999.90;999.90;;;4.80;99.90;;;;;;4980481;28;20167;-78
2020/12/07 02:59:14;;;;;;;1999.90;999.90;;;4.90;99.90;;;;;;4981034;28;20407;-78
2020/12/07 03:01:40;;;;;;;1999.90;999.90;;;4.80;99.90;;;;;;4981217;28;20163;-78
2020/12/07 03:04:05;;;;;;;1999.90;999.90;;;4.90;99.90;;;;;;4981365;28;20531;-78
2020/12/07 03:06:31;;;;;;;1999.90;999.90;;;4.80;99.90;;;;;;4980562;28;20187;-78
2020/12/07 03:08:57;;;;;;;1999.90;999.90;;;4.90;99.90;;;;;;4980790;28;20171;-78
2020/12/07 03:11:23;;;;;;;1999.90;999.90;;;4.90;99.90;;;;;;4980969;28;20179;-78
2020/12/07 03:13:49;;;;;;;1999.90;999.90;;;4.80;99.90;;;;;;4963195;28;20172;-78
2020/12/07 03:16:15;;;;;;;1999.90;999.90;;;4.80;99.90;;;;;;4980983;28;20168;-78
2020/12/07 03:18:41;;;;;;;1999.90;999.90;;;4.80;99.90;;;;;;4980752;28;20179;-78
2020/12/07 03:21:07;;;;;;;1999.90;999.90;;;4.80;99.90;;;;;;4963404;28;20635;-79
2020/12/07 03:23:32;;;;;;;1999.90;999.90;;;4.80;99.90;;;;;;4980782;28;20311;-78
2020/12/07 03:25:58;;;;;;;1999.90;999.90;;;4.90;99.90;;;;;;4980408;28;20195;-78
2020/12/07 03:28:24;;;;;;;1999.90;999.90;;;4.80;99.90;;;;;;4980548;28;20194;-78
2020/12/07 03:30:50;;;;;;;1999.90;999.90;;;4.80;99.90;;;;;;4980507;28;20837;-78
2020/12/07 03:33:15;;;;;;;1999.90;999.90;;;4.90;99.90;;;;;;4962511;28;20185;-78
2020/12/07 03:35:41;;;;;;;1999.90;999.90;;;4.90;99.90;;;;;;4980029;28;20718;-78
2020/12/07 03:38:07;;;;;;;1999.90;999.90;;;4.90;99.90;;;;;;4980109;28;20246;-78
2020/12/07 03:40:35;;;;;;;1999.90;999.90;;;4.90;99.90;;;;;;4979660;28;20167;-78
2020/12/07 03:43:01;;;;;;;1999.90;999.90;;;4.90;99.90;;;;;;4979313;28;20163;-78
2020/12/07 03:45:27;;;;;;;1999.90;999.90;;;4.90;99.90;;;;;;4979702;28;20173;-78
2020/12/07 03:47:53;;;;;;;1999.90;999.90;;;4.90;99.90;;;;;;4979469;28;20594;-78
2020/12/07 03:50:19;;;;;;;1999.90;999.90;;;4.90;99.90;;;;;;4978321;28;20254;-78
2020/12/07 03:52:45;;;;;;;1999.90;999.90;;;4.90;99.90;;;;;;4980016;28;20886;-78
2020/12/07 03:55:10;;;;;;;1999.90;999.90;;;5.00;99.90;;;;;;4980004;28;20433;-78
2020/12/07 03:57:36;;;;;;;1999.90;999.90;;;4.90;99.90;;;;;;4979358;28;20620;-78
2020/12/07 04:00:05;;;;;;;1999.90;999.90;;;4.90;99.90;;;;;;4978611;28;20170;-78
2020/12/07 04:02:31;;;;;;;1999.90;999.90;;;4.90;99.90;;;;;;4978545;28;20179;-78
2020/12/07 04:05:14;;;;;;;1999.90;999.90;;;4.90;99.90;;;;;;4978926;28;20171;-78
2020/12/07 04:07:39;;;;;;;1999.90;999.90;;;4.90;99.90;;;;;;4961796;28;20167;-78
2020/12/07 04:10:05;;;;;;;1999.90;999.90;;;4.90;99.90;;;;;;4978824;28;20587;-79
2020/12/07 04:12:31;;;;;;;1999.90;999.90;;;4.90;99.90;;;;;;4979017;28;20515;-78
2020/12/07 04:14:56;;;;;;;1999.90;999.90;;;4.90;99.90;;;;;;4980608;28;20187;-78
2020/12/07 04:17:22;;;;;;;1999.90;999.90;;;4.90;99.90;;;;;;4961829;28;20680;-78
2020/12/07 04:19:47;;;;;;;1999.90;999.90;;;4.90;99.90;;;;;;4980080;28;20164;-78
2020/12/07 04:22:13;;;;;;;1999.90;999.90;;;4.90;99.90;;;;;;4979356;28;20163;-78
2020/12/07 04:24:39;;;;;;;1999.90;999.90;;;4.90;99.90;;;;;;4979676;28;20163;-78
2020/12/07 04:27:04;;;;;;;1999.90;999.90;;;5.00;99.90;;;;;;4980095;28;20226;-78
2020/12/07 04:29:30;;;;;;;1999.90;999.90;;;4.90;99.90;;;;;;4979640;28;20266;-78
2020/12/07 04:31:55;;;;;;;1999.90;999.90;;;4.90;99.90;;;;;;4979671;28;20674;-79
2020/12/07 04:34:21;;;;;;;1999.90;999.90;;;4.90;99.90;;;;;;4979151;28;20679;-78
2020/12/07 04:36:47;;;;;;;1999.90;999.90;;;5.00;99.90;;;;;;4979624;28;20187;-78
2020/12/07 04:39:12;;;;;;;1999.90;999.90;;;4.90;99.90;;;;;;4978626;28;20195;-78
2020/12/07 04:41:41;;;;;;;1999.90;999.90;;;4.90;99.90;;;;;;4979328;28;20246;-78
2020/12/07 04:44:08;;;;;;;1999.90;999.90;;;4.90;99.90;;;;;;4978970;28;20175;-79
2020/12/07 04:46:34;;;;;;;1999.90;999.90;;;4.90;99.90;;;;;;4978625;28;20195;-78
2020/12/07 04:49:00;;;;;;;1999.90;999.90;;;4.90;99.90;;;;;;4961296;28;20171;-78
2020/12/07 04:51:26;;;;;;;1999.90;999.90;;;4.90;99.90;;;;;;4962029;28;20190;-78
2020/12/07 04:53:53;;;;;;;1999.90;999.90;;;4.90;99.90;;;;;;4979147;28;20187;-78
2020/12/07 04:56:19;;;;;;;1999.90;999.90;;;4.90;99.90;;;;;;4979355;28;20170;-78
2020/12/07 04:58:47;;;;;;;1999.90;999.90;;;4.80;99.90;;;;;;4979413;28;20583;-78
2020/12/07 05:01:12;;;;;;;1999.90;999.90;;;4.80;99.90;;;;;;4978420;28;20647;-78
2020/12/07 05:03:38;;;;;;;1999.90;999.90;;;4.90;99.90;;;;;;4961910;28;20167;-78
2020/12/07 05:06:05;;;;;;;1999.90;999.90;;;5.00;99.90;;;;;;4979507;28;20226;-78
2020/12/07 05:08:32;;;;;;;1999.90;999.90;;;5.00;99.90;;;;;;4979316;28;20269;-78
2020/12/07 05:11:01;;;;;;;1999.90;999.90;;;4.90;99.90;;;;;;4978409;28;20163;-78
2020/12/07 05:13:40;;;;;;;1999.90;999.90;;;5.00;99.90;;;;;;4977836;28;20217;-78
2020/12/07 05:16:06;;;;;;;1999.90;999.90;;;5.00;99.90;;;;;;4977107;28;20667;-78
2020/12/07 05:18:36;;;;;;;1999.90;999.90;;;5.00;99.90;;;;;;4977419;28;20195;-79
2020/12/07 05:21:03;;;;;;;1999.90;999.90;;;5.00;99.90;;;;;;4977629;28;20163;-78
2020/12/07 05:23:33;;;;;;;1999.90;999.90;;;5.00;99.90;;;;;;4978587;28;20177;-78
2020/12/07 05:26:01;;;;;;;1999.90;999.90;;;5.10;99.90;;;;;;4959978;28;20163;-79
2020/12/07 05:28:43;;;;;;;1999.90;999.90;;;5.10;99.90;;;;;;4977325;28;20172;-78
2020/12/07 05:31:17;;;;;;;1999.90;999.90;;;5.10;99.90;;;;;;4977707;28;20154;-78
2020/12/07 05:33:43;;;;;;;1999.90;999.90;;;5.10;99.90;;;;;;4977439;28;20636;-78
2020/12/07 05:36:09;;;;;;;1999.90;999.90;;;5.10;99.90;;;;;;4977493;28;20250;-78
2020/12/07 05:38:35;;;;;;;1999.90;999.90;;;5.10;99.90;;;;;;4976977;28;20166;-78
2020/12/07 05:41:03;;;;;;;1999.90;999.90;;;5.20;99.90;;;;;;4976777;28;20159;-78
2020/12/07 05:43:33;;;;;;;1999.90;999.90;;;5.20;99.90;;;;;;4959983;28;20604;-78
2020/12/07 05:46:00;;;;;;;1999.90;999.90;;;5.10;99.90;;;;;;4977863;28;20183;-78
2020/12/07 05:48:31;;;;;;;1999.90;999.90;;;5.10;99.90;;;;;;4977440;28;20523;-78
2020/12/07 05:51:01;;;;;;;1999.90;999.90;;;5.10;99.90;;;;;;4976770;28;20172;-78
2020/12/07 05:53:27;;;;;;;1999.90;999.90;;;5.10;99.90;;;;;;4960274;28;20174;-78
2020/12/07 05:55:54;;;;;;;1999.90;999.90;;;5.10;99.90;;;;;;4976368;28;20562;-78
2020/12/07 05:58:22;;;;;;;1999.90;999.90;;;5.10;99.90;;;;;;4977381;28;20159;-78
2020/12/07 06:00:47;;;;;;;1999.90;999.90;;;5.10;99.90;;;;;;4976029;28;20240;-78
2020/12/07 06:03:17;;;;;;;1999.90;999.90;;;5.10;99.90;;;;;;4976271;28;20631;-78
2020/12/07 06:05:45;;;;;;;1999.90;999.90;;;5.20;99.90;;;;;;4976432;28;20446;-78
2020/12/07 06:08:16;;;;;;;1999.90;999.90;;;5.20;99.90;;;;;;4976527;28;20163;-78
2020/12/07 06:10:56;;;;;;;1999.90;999.90;;;5.20;99.90;;;;;;4976484;28;20559;-79
2020/12/07 06:13:24;;;;;;;1999.90;999.90;;;5.20;99.90;;;;;;4975228;28;20174;-78
2020/12/07 06:15:51;;;;;;;1999.90;999.90;;;5.20;99.90;;;;;;4975941;28;20187;-78
2020/12/07 06:18:27;;;;;;;1999.90;999.90;;;5.20;99.90;;;;;;4976373;28;20187;-79
2020/12/07 06:21:05;;;;;;;1999.90;999.90;;;5.10;99.90;;;;;;4976214;28;20170;-78
2020/12/07 06:23:31;;;;;;;1999.90;999.90;;;5.10;99.90;;;;;;4976028;28;20612;-78
2020/12/07 06:26:01;;;;;;;1999.90;999.90;;;5.00;99.90;;;;;;4976081;28;20167;-78
2020/12/07 06:28:32;;;;;;;1999.90;999.90;;;5.10;99.90;;;;;;4976142;28;20601;-78
2020/12/07 06:31:18;;;;;;;1999.90;999.90;;;5.10;99.90;;;;;;4976300;28;20194;-78
2020/12/07 06:33:54;;;;;;;1999.90;999.90;;;5.10;99.90;;;;;;4959153;28;20282;-78
2020/12/07 06:36:31;;;;;;;1999.90;999.90;;;5.00;99.90;;;;;;4976270;28;20539;-78
2020/12/07 06:39:08;;;;;;;1999.90;999.90;;;5.00;99.90;;;;;;4976685;28;20210;-78
2020/12/07 06:41:37;;;;;;;1999.90;999.90;;;5.00;99.90;;;;;;4975734;28;20154;-78
2020/12/07 06:44:14;;;;;;;1999.90;999.90;;;5.00;99.90;;;;;;4958456;28;20163;-78
2020/12/07 06:47:18;;;;;;;1999.90;999.90;;;5.20;99.90;;;;;;4976282;28;20162;-79
2020/12/07 06:52:16;;;;;;;1999.90;999.90;;;5.20;99.90;;;;;;4976347;28;20507;-78
2020/12/07 06:57:31;;;;;;;1999.90;999.90;;;5.10;99.90;;;;;;4977129;28;20175;-78
2020/12/07 07:00:00;;;;;;;1999.90;999.90;;;5.10;99.90;;;;;;4958812;28;20171;-78
2020/12/07 07:02:27;;;;;;;1999.90;999.90;;;5.10;99.90;;;;;;4976588;28;20654;-79
2020/12/07 07:04:57;;;;;;;1999.90;999.90;;;5.10;99.90;;;;;;4958755;28;20722;-78
2020/12/07 07:07:25;;;;;;;1999.90;999.90;;;5.10;99.90;;;;;;4976725;28;20156;-78
2020/12/07 07:09:51;;;;;;;1999.90;999.90;;;5.10;99.90;;;;;;4975960;28;20186;-78
2020/12/07 07:12:17;;;;;;;1999.90;999.90;;;5.10;99.90;;;;;;4975397;28;20258;-78
2020/12/07 07:14:45;;;;;;;1999.90;999.90;;;5.10;99.90;;;;;;4958322;28;20243;-78
2020/12/07 07:17:11;;;;;;;1999.90;999.90;;;5.10;99.90;;;;;;4975582;28;20682;-78
2020/12/07 07:19:37;;;;;;;1999.90;999.90;;;5.10;99.90;;;;;;4975424;28;20160;-78
2020/12/07 07:22:02;;;;;;;1999.90;999.90;;;5.00;99.90;;;;;;4958559;28;20270;-78
2020/12/07 07:24:36;;;;;;;1999.90;999.90;;;5.10;99.90;;;;;;4978182;28;20197;-78
2020/12/07 07:27:58;;;;;;;1999.90;999.90;;;5.00;99.90;;;;;;4962392;28;20179;-78
2020/12/07 07:29:51;;;;;;;1999.90;999.90;;;5.10;99.90;;;;;;4979435;28;20175;-78
2020/12/07 07:32:17;;;;;;;1999.90;999.90;;;5.00;99.90;;;;;;4980222;28;20174;-78
2020/12/07 07:34:46;;;;;;;1999.90;999.90;;;4.90;99.90;;;;;;4979503;28;20195;-78
2020/12/07 07:37:12;;;;;;;1999.90;999.90;;;4.90;99.90;;;;;;4962815;28;20534;-78
2020/12/07 07:39:38;;;;;;;1999.90;999.90;;;4.90;99.90;;;;;;4979802;28;20163;-77
2020/12/07 07:42:12;;;;;;;1999.90;999.90;;;4.90;99.90;;;;;;4979684;28;20170;-79
2020/12/07 07:44:45;;;;;;;1999.90;999.90;;;4.90;99.90;;;;;;4979908;28;20181;-78
2020/12/07 07:47:16;;;;;;;1999.90;999.90;;;5.00;99.90;;;;;;4962473;28;20163;-78
2020/12/07 08:03:42;;;;;;;1999.90;999.90;;;4.90;99.90;;;;;;4942200;28;20181;-79
2020/12/07 08:06:43;;;;;;;1999.90;999.90;;;5.00;99.90;;;;;;4978866;28;20171;-78
2020/12/07 08:17:16;;;;;;;1999.90;999.90;;;5.10;99.90;;;;;;4978838;28;20579;-79
2020/12/07 08:19:43;;;;;;;1999.90;999.90;;;5.20;99.90;;;;;;4978849;28;20156;-79
2020/12/07 08:22:19;;;;;;;1999.90;999.90;;;5.10;99.90;;;;;;5044641;23;20679;-81
2020/12/07 08:25:01;;;;;;;1999.90;999.90;;;5.10;99.90;;;;;;4978879;28;20183;-81
2020/12/07 08:27:37;;;;;;;1999.90;999.90;;;5.10;99.90;;;;;;4978572;28;20248;-81
2020/12/07 08:30:06;;;;;;;1999.90;999.90;;;5.10;99.90;;;;;;4979284;28;20173;-81
2020/12/07 08:32:38;;;;;;;1999.90;999.90;;;5.00;99.90;;;;;;4961236;28;20171;-81
2020/12/07 08:35:18;;;;;;;1999.90;999.90;;;5.00;99.90;;;;;;4978106;28;20195;-81
2020/12/07 08:37:47;;;;;;;1999.90;999.90;;;5.10;99.90;;;;;;4978908;28;20147;-81
2020/12/07 08:40:14;;;;;;;1999.90;999.90;;;5.00;99.90;;;;;;4961271;28;20172;-81
2020/12/07 08:42:42;;;;;;;1999.90;999.90;;;5.00;99.90;;;;;;4978941;28;20163;-81
2020/12/07 08:45:08;;;;;;;1999.90;999.90;;;5.00;99.90;;;;;;4978504;28;20171;-81
2020/12/07 08:47:37;;;;;;;1999.90;999.90;;;5.10;99.90;;;;;;4960575;28;20186;-81
2020/12/07 08:50:09;;;;;;;1999.90;999.90;;;5.10;99.90;;;;;;4978554;28;20740;-81
2020/12/07 08:52:43;;;;;;;1999.90;999.90;;;5.10;99.90;;;;;;4976764;28;20190;-81
2020/12/07 08:55:22;;;;;;;1999.90;999.90;;;5.20;99.90;;;;;;4977389;28;20210;-81
2020/12/07 08:57:48;;;;;;;1999.90;999.90;;;5.20;99.90;;;;;;4978958;28;20143;-81
2020/12/07 09:00:20;;;;;;;1999.90;999.90;;;5.10;99.90;;;;;;4978202;28;20746;-81
2020/12/07 09:02:54;;;;;;;1999.90;999.90;;;5.10;99.90;;;;;;4961337;28;20167;-81
2020/12/07 09:05:23;;;;;;;1999.90;999.90;;;5.10;99.90;;;;;;4978507;28;20534;-81
2020/12/07 09:07:54;;;;;;;1999.90;999.90;;;5.10;99.90;;;;;;4978446;28;20167;-81
2020/12/07 09:10:20;;;;;;;1999.90;999.90;;;5.10;99.90;;;;;;4976971;28;20171;-81
2020/12/07 09:12:45;;;;;;;1999.90;999.90;;;5.20;99.90;;;;;;4978195;28;20662;-81
2020/12/07 09:15:11;;;;;;;1999.90;999.90;;;5.20;99.90;;;;;;4961138;28;20616;-81
2020/12/07 09:17:37;;;;;;;1999.90;999.90;;;5.20;99.90;;;;;;4960895;28;20172;-81
2020/12/07 09:20:03;;;;;;;1999.90;999.90;;;5.20;99.90;;;;;;4978126;28;20511;-81
2020/12/07 09:22:34;;;;;;;1999.90;999.90;;;5.20;99.90;;;;;;4961022;28;20422;-82
2020/12/07 09:25:00;;;;;;;1999.90;999.90;;;5.30;99.90;;;;;;4960639;28;20603;-81
2020/12/07 09:27:26;;;;;;;1999.90;999.90;;;5.30;99.90;;;;;;4960586;28;20171;-81
2020/12/07 09:29:51;;;;;;;1999.90;999.90;;;5.30;99.90;;;;;;4976271;28;20464;-81
2020/12/07 09:32:17;;;;;;;1999.90;999.90;;;5.40;99.90;;;;;;4977595;28;20167;-81
2020/12/07 09:34:43;;;;;;;1999.90;999.90;;;5.50;99.90;;;;;;4959690;28;20199;-81
2020/12/07 09:37:09;;;;;;;1999.90;999.90;;;5.50;99.90;;;;;;4976660;28;20283;-81
2020/12/07 09:39:35;;;;;;;1999.90;999.90;;;5.40;99.90;;;;;;4976237;28;20207;-81
2020/12/07 09:42:00;;;;;;;1999.90;999.90;;;5.50;99.90;;;;;;4975619;28;20171;-81
2020/12/07 09:44:29;;;;;;;1999.90;999.90;;;5.60;99.90;;;;;;4977207;28;20398;-81
2020/12/07 09:46:58;;;;;;;1999.90;999.90;;;5.40;99.90;;;;;;4959392;28;20601;-81
2020/12/07 09:49:23;;;;;;;1999.90;999.90;;;5.50;99.90;;;;;;4976907;28;20175;-81
2020/12/07 09:51:49;;;;;;;1999.90;999.90;;;5.50;99.90;;;;;;4959740;28;20183;-81
2020/12/07 09:54:15;;;;;;;1999.90;999.90;;;5.50;99.90;;;;;;4959670;28;20602;-81
2020/12/07 09:56:41;;;;;;;1999.90;999.90;;;5.50;99.90;;;;;;4943724;28;20842;-81
2020/12/07 09:59:06;;;;;;;1999.90;999.90;;;5.50;99.90;;;;;;4976728;28;20453;-81
2020/12/07 10:01:32;;;;;;;1999.90;999.90;;;5.50;99.90;;;;;;4977051;28;20170;-81
2020/12/07 10:03:58;;;;;;;1999.90;999.90;;;5.50;99.90;;;;;;4976916;28;20164;-81
2020/12/07 10:06:23;;;;;;;1999.90;999.90;;;5.50;99.90;;;;;;4959746;28;20218;-81
2020/12/07 10:08:49;;;;;;;1999.90;999.90;;;5.60;99.90;;;;;;4977262;28;20166;-81
2020/12/07 10:11:15;;;;;;;1999.90;999.90;;;5.60;99.90;;;;;;4975891;28;20426;-81
2020/12/07 10:13:42;;;;;;;1999.90;999.90;;;5.60;99.90;;;;;;4977139;28;20171;-81
2020/12/07 10:16:11;;;;;;;1999.90;999.90;;;5.50;99.90;;;;;;4976960;28;20191;-81
2020/12/07 10:18:36;;;;;;;1999.90;999.90;;;5.40;99.90;;;;;;4975509;28;20543;-81
2020/12/07 10:21:02;;;;;;;1999.90;999.90;;;5.50;99.90;;;;;;4975727;28;20191;-81
2020/12/07 10:23:28;;;;;;;1999.90;999.90;;;5.50;99.90;;;;;;4976385;28;20164;-81
2020/12/07 10:25:56;;;;;;;1999.90;999.90;;;5.60;99.90;;;;;;4976766;28;20237;-81
2020/12/07 10:28:22;;;;;;;1999.90;999.90;;;5.60;99.90;;;;;;4959419;28;20591;-81
2020/12/07 10:30:48;;;;;;;1999.90;999.90;;;5.80;99.90;;;;;;4959654;28;20175;-81
2020/12/07 10:33:14;;;;;;;1999.90;999.90;;;5.80;99.90;;;;;;4977048;28;20615;-81
2020/12/07 10:35:42;;;;;;;1999.90;999.90;;;6.00;99.90;;;;;;4976021;28;20198;-81
2020/12/07 10:38:08;;;;;;;1999.90;999.90;;;6.00;99.90;;;;;;4976741;28;20929;-81
2020/12/07 10:40:33;;;;;;;1999.90;999.90;;;5.90;99.90;;;;;;4960457;28;20172;-81
2020/12/07 10:42:59;;;;;;;1999.90;999.90;;;6.00;99.90;;;;;;4976772;28;20178;-81
2020/12/07 10:45:25;;;;;;;1999.90;999.90;;;6.10;99.90;;;;;;4975950;28;20175;-81
2020/12/07 10:47:53;;;;;;;1999.90;999.90;;;6.10;99.90;;;;;;4977138;28;20195;-81
2020/12/07 10:50:20;;;;;;;1999.90;999.90;;;6.20;99.90;;;;;;4977109;28;20175;-81
2020/12/07 10:52:46;;;;;;;1999.90;999.90;;;6.20;99.90;;;;;;4959277;28;20266;-81
2020/12/07 10:55:12;;;;;;;1999.90;999.90;;;6.20;99.90;;;;;;4977122;28;20245;-81
2020/12/07 10:57:40;;;;;;;1999.90;999.90;;;6.30;99.90;;;;;;4977431;28;20178;-81
2020/12/07 11:00:09;;;;;;;1999.90;999.90;;;6.40;99.90;;;;;;4979489;28;20402;-81
2020/12/07 11:02:35;;;;;;;1999.90;999.90;;;6.30;99.90;;;;;;4963626;28;20199;-81
2020/12/07 11:05:01;;;;;;;1999.90;999.90;;;6.30;99.90;;;;;;4981021;28;20164;-81
2020/12/07 11:07:28;;;;;;;1999.90;999.90;;;6.30;99.90;;;;;;4981376;28;20171;-81
2020/12/07 11:10:00;;;;;;;1999.90;999.90;;;6.40;99.90;;;;;;4981141;28;20284;-81
2020/12/07 11:12:25;;;;;;;1999.90;999.90;;;6.40;99.90;;;;;;4979872;28;20174;-81
2020/12/07 11:14:51;;;;;;;1999.90;999.90;;;6.40;99.90;;;;;;4963118;28;20198;-81
2020/12/07 11:17:17;;;;;;;1999.90;999.90;;;6.40;99.90;;;;;;4980486;28;20406;-81
2020/12/07 11:19:44;;;;;;;1999.90;999.90;;;6.50;99.90;;;;;;4962644;28;20596;-81
2020/12/07 11:22:13;;;;;;;1999.90;999.90;;;6.50;99.90;;;;;;4980276;28;20422;-81
2020/12/07 11:24:39;;;;;;;1999.90;999.90;;;6.50;99.90;;;;;;4980455;28;20167;-81
2020/12/07 11:27:05;;;;;;;1999.90;999.90;;;6.40;99.90;;;;;;4962734;28;20179;-81
2020/12/07 11:29:32;;;;;;;1999.90;999.90;;;6.50;99.90;;;;;;4980379;28;20167;-81
2020/12/07 11:31:57;;;;;;;1999.90;999.90;;;6.50;99.90;;;;;;4962706;28;20190;-81
2020/12/07 11:34:23;;;;;;;1999.90;999.90;;;6.50;99.90;;;;;;4979977;28;20191;-81
2020/12/07 11:36:49;;;;;;;1999.90;999.90;;;6.50;99.90;;;;;;4980079;28;20527;-81
2020/12/07 11:39:32;;;;;;;1999.90;999.90;;;6.40;99.90;;;;;;4978478;28;20174;-81
2020/12/07 11:44:41;;;;;;;1999.90;999.90;;;6.50;99.90;;;;;;4980513;28;20241;-81
2020/12/07 11:47:10;;;;;;;1999.90;999.90;;;6.50;99.90;;;;;;4979580;28;20163;-81
2020/12/07 11:49:35;;;;;;;1999.90;999.90;;;6.50;99.90;;;;;;4979430;28;20163;-80
2020/12/07 11:52:03;;;;;;;1999.90;999.90;;;6.50;99.90;;;;;;4962347;28;20167;-81
2020/12/07 11:54:29;;;;;;;1999.90;999.90;;;6.40;99.90;;;;;;4979242;28;20211;-81
2020/12/07 11:56:54;;;;;;;1999.90;999.90;;;6.40;99.90;;;;;;4962433;28;20238;-80
2020/12/07 11:59:20;;;;;;;1999.90;999.90;;;6.30;99.90;;;;;;4979739;28;20567;-81
2020/12/07 12:01:46;;;;;;;1999.90;999.90;;;6.40;99.90;;;;;;4962909;28;20218;-81
2020/12/07 12:04:11;;;;;;;1999.90;999.90;;;6.40;99.90;;;;;;4962342;28;20207;-81
2020/12/07 12:06:38;;;;;;;1999.90;999.90;;;6.30;99.90;;;;;;4979077;28;20572;-81
2020/12/07 12:09:06;;;;;;;1999.90;999.90;;;6.30;99.90;;;;;;4961932;28;20242;-81
2020/12/07 12:11:34;;;;;;;1999.90;999.90;;;6.40;99.90;;;;;;4961766;28;20542;-81
2020/12/07 12:14:02;;;;;;;1999.90;999.90;;;6.40;99.90;;;;;;4979303;28;20199;-81
2020/12/07 12:16:31;;;;;;;1999.90;999.90;;;6.40;99.90;;;;;;4961494;28;20649;-81
2020/12/07 12:18:58;;;;;;;1999.90;999.90;;;6.40;99.90;;;;;;4961737;28;20194;-81
2020/12/07 12:21:27;;;;;;;1999.90;999.90;;;6.40;99.90;;;;;;4978661;28;20179;-81
2020/12/07 12:23:53;;;;;;;1999.90;999.90;;;6.50;99.90;;;;;;4961478;28;20180;-81
2020/12/07 12:26:20;;;;;;;1999.90;999.90;;;6.50;99.90;;;;;;4979044;28;20747;-81
2020/12/07 12:28:47;;;;;;;1999.90;999.90;;;6.60;99.90;;;;;;4961561;28;20419;-81
2020/12/07 12:31:16;;;;;;;1999.90;999.90;;;6.60;99.90;;;;;;4978908;28;20171;-81
2020/12/07 12:33:43;;;;;;;1999.90;999.90;;;6.60;99.90;;;;;;4961756;28;20179;-81
2020/12/07 12:36:14;;;;;;;1999.90;999.90;;;6.50;99.90;;;;;;4961213;28;20195;-81
2020/12/07 12:38:40;;;;;;;1999.90;999.90;;;6.50;99.90;;;;;;4978970;28;20152;-81
2020/12/07 12:41:07;;;;;;;1999.90;999.90;;;6.60;99.90;;;;;;4978624;28;20163;-81